createdAt,value
2022-10-28T00:01:47.688Z,7.20
2022-10-28T00:04:50.625Z,7.78
2022-10-28T00:07:53.512Z,8.80
2022-10-28T00:11:03.456Z,7.50
2022-10-28T00:14:07.959Z,8.77
2022-10-28T00:17:12.216Z,7.60
2022-10-28T00:20:15.915Z,9.15
2022-10-28T00:23:18.520Z,8.07
2022-10-28T00:26:24.511Z,9.45
2022-10-28T00:29:27.288Z,8.15
2022-10-28T00:32:32.466Z,8.10
2022-10-28T00:35:35.287Z,7.45
2022-10-28T00:38:38.023Z,8.32
2022-10-28T00:41:43.080Z,7.22
2022-10-28T00:44:58.018Z,7.43
2022-10-28T00:48:03.892Z,7.03
2022-10-28T00:51:06.810Z,6.63
2022-10-28T00:54:09.902Z,7.40
2022-10-28T00:57:15.939Z,7.50
2022-10-28T01:00:18.956Z,7.72
2022-10-28T01:03:23.035Z,7.87
2022-10-28T01:06:27.887Z,7.70
2022-10-28T01:09:30.482Z,7.60
2022-10-28T01:12:41.174Z,7.38
2022-10-28T01:15:50.694Z,7.28
2022-10-28T01:19:07.603Z,6.90
2022-10-28T01:22:21.389Z,8.25
2022-10-28T01:25:42.839Z,8.20
2022-10-28T01:29:04.201Z,7.40
2022-10-28T01:32:13.064Z,8.65
2022-10-28T01:35:23.266Z,6.80
2022-10-28T01:38:34.029Z,7.40
2022-10-28T01:41:44.250Z,8.07
2022-10-28T01:44:53.260Z,7.20
2022-10-28T01:48:01.515Z,7.45
2022-10-28T01:51:09.761Z,7.33
2022-10-28T01:54:16.024Z,7.93
2022-10-28T01:57:19.762Z,7.45
2022-10-28T02:00:22.568Z,7.68
2022-10-28T02:03:27.280Z,9.20
2022-10-28T02:06:33.252Z,7.63
2022-10-28T02:09:52.124Z,7.32
2022-10-28T02:12:57.445Z,8.00
2022-10-28T02:16:07.582Z,8.80
2022-10-28T02:19:20.108Z,7.20
2022-10-28T02:22:27.700Z,8.17
2022-10-28T02:25:34.899Z,9.32
2022-10-28T02:28:43.016Z,7.40
2022-10-28T02:31:50.343Z,7.85
2022-10-28T02:34:57.784Z,7.63
2022-10-28T02:38:03.937Z,8.97
2022-10-28T02:41:14.214Z,7.93
2022-10-28T02:44:21.336Z,8.40
2022-10-28T02:47:29.897Z,9.07
2022-10-28T02:50:37.882Z,7.88
2022-10-28T02:53:51.550Z,8.30
2022-10-28T02:57:00.566Z,8.13
2022-10-28T03:00:08.446Z,8.90
2022-10-28T03:03:11.112Z,8.23
2022-10-28T03:06:15.477Z,7.35
2022-10-28T03:09:18.390Z,7.90
2022-10-28T03:12:21.063Z,8.25
2022-10-28T03:15:23.964Z,8.35
2022-10-28T03:18:26.535Z,7.00
2022-10-28T03:21:30.639Z,7.35
2022-10-28T03:24:33.530Z,8.93
2022-10-28T03:27:36.134Z,7.05
2022-10-28T03:30:38.909Z,8.07
2022-10-28T03:33:41.533Z,7.82
2022-10-28T03:36:45.938Z,7.40
2022-10-28T03:39:48.703Z,7.63
2022-10-28T03:42:51.655Z,8.55
2022-10-28T03:45:54.742Z,8.63
2022-10-28T03:48:57.417Z,8.57
2022-10-28T03:52:01.596Z,8.03
2022-10-28T03:55:04.966Z,7.30
2022-10-28T03:58:07.537Z,8.07
2022-10-28T04:01:10.465Z,8.60
2022-10-28T04:04:13.258Z,8.65
2022-10-28T04:07:17.332Z,7.97
2022-10-28T04:10:20.017Z,7.40
2022-10-28T04:13:22.599Z,7.20
2022-10-28T04:16:25.376Z,8.93
2022-10-28T04:19:28.015Z,7.82
2022-10-28T04:22:32.073Z,8.20
2022-10-28T04:25:34.767Z,7.37
2022-10-28T04:28:37.359Z,7.95
2022-10-28T04:31:40.103Z,8.60
2022-10-28T04:34:42.708Z,8.15
2022-10-28T04:37:46.864Z,7.57
2022-10-28T04:40:49.936Z,7.20
2022-10-28T04:43:52.527Z,7.68
2022-10-28T04:46:56.837Z,10.05
2022-10-28T04:49:59.409Z,8.20
2022-10-28T04:53:03.501Z,9.00
2022-10-28T04:56:06.863Z,9.40
2022-10-28T04:59:09.430Z,9.40
2022-10-28T05:02:12.303Z,11.67
2022-10-28T05:08:24.266Z,10.65
2022-10-28T05:11:27.032Z,9.15
2022-10-28T05:14:29.664Z,8.77
2022-10-28T05:17:32.394Z,8.35
2022-10-28T05:20:35.140Z,9.25
2022-10-28T05:23:39.162Z,8.77
2022-10-28T05:26:41.973Z,9.73
2022-10-28T05:29:44.646Z,10.30
2022-10-28T05:32:49.280Z,9.43
2022-10-28T05:35:54.294Z,11.18
2022-10-28T05:38:58.511Z,11.80
2022-10-28T05:42:01.235Z,10.48
2022-10-28T05:45:03.903Z,9.40
2022-10-28T05:48:07.836Z,9.77
2022-10-28T05:51:10.404Z,9.65
2022-10-28T05:54:14.565Z,9.27
2022-10-28T05:57:17.368Z,9.18
2022-10-28T06:00:21.658Z,10.20
2022-10-28T06:03:28.603Z,9.70
2022-10-28T06:06:33.809Z,10.05
2022-10-28T06:09:38.040Z,9.63
2022-10-28T06:12:39.387Z,9.55
2022-10-28T06:15:42.024Z,8.90
2022-10-28T06:18:44.903Z,10.20
2022-10-28T06:21:47.618Z,11.43
2022-10-28T06:24:51.619Z,10.50
2022-10-28T06:27:55.676Z,11.35
2022-10-28T06:31:01.581Z,11.33
2022-10-28T06:34:04.441Z,10.35
2022-10-28T06:37:08.910Z,10.23
2022-10-28T06:40:13.575Z,9.20
2022-10-28T06:43:16.339Z,10.55
2022-10-28T06:46:18.936Z,10.43
2022-10-28T06:49:23.369Z,9.40
2022-10-28T06:52:25.969Z,9.88
2022-10-28T06:55:31.094Z,12.73
2022-10-28T06:58:33.869Z,9.82
2022-10-28T07:01:36.591Z,10.70
2022-10-28T07:04:39.906Z,9.93
2022-10-28T07:07:42.527Z,8.90
2022-10-28T07:10:54.711Z,9.38
2022-10-28T07:13:57.476Z,9.23
2022-10-28T07:17:00.218Z,9.33
2022-10-28T07:20:03.097Z,9.75
2022-10-28T07:23:05.760Z,8.95
2022-10-28T07:26:09.924Z,8.60
2022-10-28T07:29:12.796Z,10.35
2022-10-28T07:32:16.139Z,9.13
2022-10-28T07:35:19.176Z,9.73
2022-10-28T07:38:22.531Z,8.13
2022-10-28T07:41:27.095Z,9.35
2022-10-28T07:44:29.824Z,9.65
2022-10-28T07:47:32.418Z,11.30
2022-10-28T07:50:35.377Z,9.25
2022-10-28T07:53:38.000Z,9.20
2022-10-28T07:56:42.150Z,11.15
2022-10-28T07:59:45.104Z,11.82
2022-10-28T08:02:47.924Z,10.37
2022-10-28T08:05:50.736Z,10.30
2022-10-28T08:08:56.544Z,10.73
2022-10-28T08:12:00.946Z,9.02
2022-10-28T08:15:03.875Z,8.88
2022-10-28T08:18:06.689Z,11.43
2022-10-28T08:21:11.358Z,7.90
2022-10-28T08:24:14.058Z,9.57
2022-10-28T08:27:18.149Z,10.57
2022-10-28T08:30:20.931Z,8.20
2022-10-28T08:33:23.637Z,8.40
2022-10-28T08:36:26.511Z,9.02
2022-10-28T08:39:29.186Z,7.25
2022-10-28T08:42:41.500Z,8.05
2022-10-28T08:45:51.641Z,8.65
2022-10-28T08:48:57.673Z,11.07
2022-10-28T08:52:05.078Z,7.07
2022-10-28T08:55:13.374Z,9.98
2022-10-28T08:58:21.888Z,8.90
2022-10-28T09:01:36.550Z,8.50
2022-10-28T09:04:41.425Z,9.40
2022-10-28T09:07:44.317Z,8.40
2022-10-28T09:10:59.908Z,7.63
2022-10-28T09:14:16.714Z,7.25
2022-10-28T09:17:21.556Z,8.65
2022-10-28T09:20:35.112Z,7.87
2022-10-28T09:23:49.654Z,8.68
2022-10-28T09:27:00.025Z,8.57
2022-10-28T09:30:19.604Z,9.73
2022-10-28T09:33:47.154Z,9.45
2022-10-28T09:36:55.323Z,8.53
2022-10-28T09:40:03.240Z,7.85
2022-10-28T09:43:12.732Z,9.60
2022-10-28T09:46:18.936Z,8.80
2022-10-28T09:49:26.102Z,8.15
2022-10-28T09:52:35.731Z,7.60
2022-10-28T09:55:38.435Z,12.52
2022-10-28T09:58:47.192Z,7.28
2022-10-28T10:01:51.385Z,10.02
2022-10-28T10:04:54.466Z,11.93
2022-10-28T10:08:00.450Z,8.73
2022-10-28T10:11:06.952Z,9.40
2022-10-28T10:14:13.850Z,8.85
2022-10-28T10:17:21.290Z,7.72
2022-10-28T10:20:23.900Z,9.93
2022-10-28T10:23:32.078Z,9.73
2022-10-28T10:26:35.664Z,11.90
2022-10-28T10:29:45.073Z,9.10
2022-10-28T10:32:50.014Z,7.72
2022-10-28T10:36:00.256Z,9.10
2022-10-28T10:39:04.214Z,9.87
2022-10-28T10:42:17.446Z,6.38
2022-10-28T10:45:23.787Z,8.13
2022-10-28T10:48:28.176Z,6.50
2022-10-28T10:51:31.052Z,8.05
2022-10-28T10:54:35.221Z,6.83
2022-10-28T10:57:38.177Z,8.77
2022-10-28T11:00:47.009Z,7.97
2022-10-28T11:03:55.187Z,10.55
2022-10-28T11:06:58.839Z,6.83
2022-10-28T11:10:02.839Z,7.43
2022-10-28T11:13:26.499Z,9.33
2022-10-28T11:16:29.046Z,8.40
2022-10-28T11:19:34.665Z,8.13
2022-10-28T11:22:46.739Z,9.32
2022-10-28T11:25:52.705Z,9.40
2022-10-28T11:29:10.054Z,8.53
2022-10-28T11:32:34.004Z,8.67
2022-10-28T11:35:54.679Z,9.32
2022-10-28T11:39:13.685Z,9.13
2022-10-28T11:42:25.609Z,6.75
2022-10-28T11:45:33.810Z,9.33
2022-10-28T11:48:59.195Z,7.40
2022-10-28T11:52:13.882Z,8.55
2022-10-28T11:55:27.236Z,9.32
2022-10-28T11:58:40.303Z,8.10
2022-10-28T12:01:55.234Z,9.77
2022-10-28T12:05:05.580Z,10.40
2022-10-28T12:08:26.418Z,7.15
2022-10-28T12:11:40.141Z,7.75
2022-10-28T12:14:52.253Z,8.27
2022-10-28T12:18:02.022Z,6.37
2022-10-28T12:21:16.360Z,10.27
2022-10-28T12:24:23.685Z,9.00
2022-10-28T12:27:31.536Z,8.57
2022-10-28T12:30:38.691Z,8.68
2022-10-28T12:33:45.887Z,8.40
2022-10-28T12:36:53.299Z,8.73
2022-10-28T12:40:03.296Z,8.05
2022-10-28T12:43:11.965Z,9.63
2022-10-28T12:46:23.726Z,7.88
2022-10-28T12:49:37.978Z,7.00
2022-10-28T12:52:48.486Z,8.80
2022-10-28T12:55:58.098Z,9.23
2022-10-28T12:59:07.660Z,8.75
2022-10-28T13:02:17.936Z,8.88
2022-10-28T13:05:24.996Z,9.20
2022-10-28T13:08:45.518Z,7.83
2022-10-28T13:12:16.964Z,8.90
2022-10-28T13:15:44.274Z,9.70
2022-10-28T13:18:59.539Z,8.65
2022-10-28T13:22:20.464Z,8.10
2022-10-28T13:25:35.177Z,9.97
2022-10-28T13:28:47.157Z,12.45
2022-10-28T13:31:50.213Z,8.30
2022-10-28T13:34:52.784Z,10.30
2022-10-28T13:37:57.340Z,9.53
2022-10-28T13:41:28.618Z,6.50
2022-10-28T13:44:48.568Z,7.82
2022-10-28T13:47:51.309Z,7.78
2022-10-28T13:51:42.700Z,7.97
2022-10-28T13:54:56.102Z,8.50
2022-10-28T13:58:01.959Z,8.03
2022-10-28T14:02:01.570Z,8.63
2022-10-28T14:05:14.891Z,8.30
2022-10-28T14:08:22.366Z,10.52
2022-10-28T14:11:28.614Z,8.97
2022-10-28T14:14:31.781Z,9.60
2022-10-28T14:17:42.629Z,7.18
2022-10-28T14:20:58.871Z,10.50
2022-10-28T14:24:13.298Z,7.28
2022-10-28T14:27:28.824Z,8.20
2022-10-28T14:30:31.407Z,7.10
2022-10-28T14:33:34.786Z,10.05
2022-10-28T14:36:48.935Z,7.50
2022-10-28T14:40:07.097Z,8.48
2022-10-28T14:43:44.451Z,6.97
2022-10-28T14:47:00.877Z,6.97
2022-10-28T14:50:08.231Z,8.25
2022-10-28T14:53:18.440Z,6.70
2022-10-28T14:56:25.557Z,9.02
2022-10-28T14:59:34.331Z,6.40
2022-10-28T15:02:39.125Z,9.60
2022-10-28T15:05:41.942Z,8.90
2022-10-28T15:08:45.923Z,6.88
2022-10-28T15:11:51.764Z,6.65
2022-10-28T15:14:56.067Z,8.73
2022-10-28T15:17:59.804Z,7.33
2022-10-28T15:21:10.059Z,10.07
2022-10-28T15:24:17.590Z,6.35
2022-10-28T15:27:21.208Z,6.70
2022-10-28T15:30:25.994Z,9.20
2022-10-28T15:33:31.623Z,7.57
2022-10-28T15:36:34.325Z,6.75
2022-10-28T15:39:40.072Z,8.60
2022-10-28T15:42:50.807Z,9.18
2022-10-28T15:45:54.406Z,7.47
2022-10-28T15:48:59.548Z,6.70
2022-10-28T15:52:22.048Z,8.18
2022-10-28T15:55:47.880Z,9.18
2022-10-28T15:59:14.848Z,7.93
2022-10-28T16:02:40.810Z,8.93
2022-10-28T16:05:47.762Z,12.13
2022-10-28T16:09:02.006Z,8.30
2022-10-28T16:12:16.026Z,8.55
2022-10-28T16:15:19.270Z,8.57
2022-10-28T16:18:25.378Z,10.30
2022-10-28T16:21:28.622Z,10.97
2022-10-28T16:24:31.214Z,8.32
2022-10-28T16:27:35.633Z,8.07
2022-10-28T16:30:38.667Z,14.50
2022-10-28T16:33:41.356Z,17.03
2022-10-28T16:36:44.298Z,13.83
2022-10-28T16:39:47.128Z,20.60
2022-10-28T16:42:51.669Z,16.17
2022-10-28T16:45:57.095Z,17.20
2022-10-28T16:49:01.214Z,16.87
2022-10-28T16:52:05.685Z,13.57
2022-10-28T16:55:16.292Z,12.18
2022-10-28T16:58:23.172Z,13.30
2022-10-28T17:01:29.162Z,15.05
2022-10-28T17:04:32.132Z,10.77
2022-10-28T17:07:35.125Z,9.87
2022-10-28T17:10:39.867Z,10.85
2022-10-28T17:13:44.108Z,14.07
2022-10-28T17:16:46.950Z,9.70
2022-10-28T17:19:49.724Z,8.07
2022-10-28T17:22:52.982Z,11.33
2022-10-28T17:25:59.249Z,14.27
2022-10-28T17:29:03.302Z,11.15
2022-10-28T17:32:08.743Z,8.77
2022-10-28T17:35:13.897Z,9.70
2022-10-28T17:38:16.515Z,8.30
2022-10-28T17:41:19.400Z,12.10
2022-10-28T17:44:24.379Z,10.45
2022-10-28T17:47:27.189Z,9.40
2022-10-28T17:50:29.735Z,9.07
2022-10-28T17:53:32.926Z,7.87
2022-10-28T17:56:35.876Z,10.30
2022-10-28T17:59:40.107Z,12.27
2022-10-28T18:02:43.299Z,10.00
2022-10-28T18:05:46.044Z,10.50
2022-10-28T18:11:53.431Z,11.13
2022-10-28T18:14:58.024Z,10.93
2022-10-28T18:18:01.598Z,10.35
2022-10-28T18:21:04.869Z,10.63
2022-10-28T18:24:08.698Z,8.10
2022-10-28T18:27:11.671Z,9.13
2022-10-28T18:30:16.143Z,8.82
2022-10-28T18:33:19.062Z,9.00
2022-10-28T18:36:23.059Z,8.93
2022-10-28T18:39:27.004Z,9.63
2022-10-28T18:42:30.553Z,9.40
2022-10-28T18:45:35.425Z,8.32
2022-10-28T18:48:38.875Z,10.45
2022-10-28T18:51:41.840Z,10.97
2022-10-28T18:54:44.497Z,11.57
2022-10-28T18:57:50.939Z,10.98
2022-10-28T19:00:55.458Z,11.23
2022-10-28T19:03:59.973Z,10.52
2022-10-28T19:07:02.746Z,9.30
2022-10-28T19:10:07.560Z,9.30
2022-10-28T19:13:10.357Z,9.23
2022-10-28T19:16:15.776Z,10.57
2022-10-28T19:19:18.803Z,7.68
2022-10-28T19:22:22.085Z,10.00
2022-10-28T19:25:24.933Z,10.03
2022-10-28T19:28:28.231Z,11.07
2022-10-28T19:31:36.382Z,14.48
2022-10-28T19:34:39.338Z,11.57
2022-10-28T19:37:42.134Z,10.70
2022-10-28T19:40:44.703Z,11.97
2022-10-28T19:43:47.911Z,13.32
2022-10-28T19:46:51.878Z,13.23
2022-10-28T19:49:54.850Z,17.20
2022-10-28T19:52:57.962Z,16.17
2022-10-28T19:56:02.446Z,17.03
2022-10-28T19:59:08.391Z,14.90
2022-10-28T20:02:13.035Z,13.23
2022-10-28T20:05:16.263Z,12.68
2022-10-28T20:08:19.044Z,12.60
2022-10-28T20:11:26.155Z,11.53
2022-10-28T20:14:29.811Z,11.38
2022-10-28T20:17:34.222Z,13.38
2022-10-28T20:20:37.217Z,12.80
2022-10-28T20:23:40.525Z,11.43
2022-10-28T20:26:43.559Z,13.10
2022-10-28T20:29:46.478Z,12.73
2022-10-28T20:32:54.794Z,12.23
2022-10-28T20:35:59.252Z,10.25
2022-10-28T20:39:03.811Z,11.43
2022-10-28T20:42:06.596Z,11.17
2022-10-28T20:45:10.544Z,12.63
2022-10-28T20:48:14.725Z,8.93
2022-10-28T20:51:18.028Z,11.38
2022-10-28T20:54:20.722Z,9.60
2022-10-28T20:57:23.525Z,10.33
2022-10-28T21:00:26.258Z,10.18
2022-10-28T21:03:30.188Z,11.18
2022-10-28T21:06:33.931Z,9.55
2022-10-28T21:09:36.765Z,12.77
2022-10-28T21:12:39.362Z,12.80
2022-10-28T21:15:45.563Z,12.18
2022-10-28T21:18:50.126Z,11.70
2022-10-28T21:21:53.258Z,13.38
2022-10-28T21:24:56.258Z,12.63
2022-10-28T21:27:59.736Z,14.70
2022-10-28T21:31:05.761Z,13.32
2022-10-28T21:34:10.001Z,12.07
2022-10-28T21:37:12.950Z,11.35
2022-10-28T21:40:15.916Z,12.53
2022-10-28T21:43:18.452Z,13.47
2022-10-28T21:46:22.797Z,11.68
2022-10-28T21:49:26.858Z,11.13
2022-10-28T21:52:29.748Z,12.18
2022-10-28T21:55:46.003Z,12.30
2022-10-28T21:58:51.759Z,13.13
2022-10-28T22:01:55.521Z,11.82
2022-10-28T22:05:00.245Z,11.98
2022-10-28T22:08:04.861Z,12.50
2022-10-28T22:11:09.620Z,12.47
2022-10-28T22:14:12.220Z,12.33
2022-10-28T22:17:15.209Z,11.15
2022-10-28T22:20:19.534Z,10.63
2022-10-28T22:23:22.128Z,10.50
2022-10-28T22:26:26.851Z,10.17
2022-10-28T22:29:29.407Z,11.67
2022-10-28T22:32:32.135Z,10.32
2022-10-28T22:35:36.161Z,11.75
2022-10-28T22:38:38.945Z,11.82
2022-10-28T22:41:41.618Z,9.83
2022-10-28T22:44:44.241Z,10.30
2022-10-28T22:47:47.037Z,9.30
2022-10-28T22:50:51.124Z,9.50
2022-10-28T22:53:53.704Z,12.98
2022-10-28T22:56:56.370Z,8.77
2022-10-28T22:59:58.934Z,11.47
2022-10-28T23:03:01.741Z,9.85
2022-10-28T23:06:07.156Z,8.50
2022-10-28T23:09:10.328Z,14.02
2022-10-28T23:12:13.789Z,8.40
2022-10-28T23:15:16.523Z,9.63
2022-10-28T23:18:19.183Z,10.40
2022-10-28T23:21:24.747Z,9.95
2022-10-28T23:24:27.319Z,9.95
2022-10-28T23:27:30.159Z,9.43
2022-10-28T23:30:32.965Z,10.43
2022-10-28T23:33:36.045Z,10.05
2022-10-28T23:36:40.230Z,12.40
2022-10-28T23:39:42.771Z,9.38
2022-10-28T23:42:45.425Z,9.23
2022-10-28T23:45:48.037Z,10.63
2022-10-28T23:48:50.726Z,9.98
2022-10-28T23:51:54.767Z,9.85
2022-10-28T23:54:57.302Z,9.00
2022-10-28T23:58:00.300Z,8.53
